sensor_id;sensor_type;location;lat;lon;timestamp;temperature;humidity
23755;DHT22;12057;52.042;6.830;2023-06-04T00:02:59;15.80;86.80
23755;DHT22;12057;52.042;6.830;2023-06-04T00:08:00;15.60;87.40
23755;DHT22;12057;52.042;6.830;2023-06-04T00:13:01;15.50;88.40
23755;DHT22;12057;52.042;6.830;2023-06-04T00:18:02;15.40;88.70
23755;DHT22;12057;52.042;6.830;2023-06-04T00:23:03;15.40;87.90
23755;DHT22;12057;52.042;6.830;2023-06-04T00:28:04;15.50;89.60
23755;DHT22;12057;52.042;6.830;2023-06-04T00:33:04;15.40;88.90
23755;DHT22;12057;52.042;6.830;2023-06-04T00:38:05;15.30;89.90
23755;DHT22;12057;52.042;6.830;2023-06-04T00:43:06;15.10;90.40
23755;DHT22;12057;52.042;6.830;2023-06-04T00:48:07;15.10;90.30
23755;DHT22;12057;52.042;6.830;2023-06-04T00:53:09;15.00;90.60
23755;DHT22;12057;52.042;6.830;2023-06-04T00:58:11;15.00;91.10
23755;DHT22;12057;52.042;6.830;2023-06-04T01:03:18;14.90;91.30
23755;DHT22;12057;52.042;6.830;2023-06-04T01:08:19;14.70;91.50
23755;DHT22;12057;52.042;6.830;2023-06-04T01:13:20;14.70;91.30
23755;DHT22;12057;52.042;6.830;2023-06-04T01:18:26;14.60;91.20
23755;DHT22;12057;52.042;6.830;2023-06-04T01:28:47;14.40;91.80
23755;DHT22;12057;52.042;6.830;2023-06-04T01:33:50;14.40;91.80
23755;DHT22;12057;52.042;6.830;2023-06-04T01:38:51;14.50;92.10
23755;DHT22;12057;52.042;6.830;2023-06-04T01:43:52;14.30;92.10
23755;DHT22;12057;52.042;6.830;2023-06-04T01:48:53;14.30;92.50
23755;DHT22;12057;52.042;6.830;2023-06-04T01:53:56;14.20;93.20
23755;DHT22;12057;52.042;6.830;2023-06-04T01:58:57;13.80;93.60
23755;DHT22;12057;52.042;6.830;2023-06-04T02:03:58;13.90;93.20
23755;DHT22;12057;52.042;6.830;2023-06-04T02:08:59;13.90;94.30
23755;DHT22;12057;52.042;6.830;2023-06-04T02:14:01;13.90;94.20
23755;DHT22;12057;52.042;6.830;2023-06-04T02:19:01;13.80;94.50
23755;DHT22;12057;52.042;6.830;2023-06-04T02:24:03;13.80;94.10
23755;DHT22;12057;52.042;6.830;2023-06-04T02:29:04;13.80;94.20
23755;DHT22;12057;52.042;6.830;2023-06-04T02:34:05;13.80;95.20
23755;DHT22;12057;52.042;6.830;2023-06-04T02:39:05;13.70;95.60
23755;DHT22;12057;52.042;6.830;2023-06-04T02:44:06;13.70;95.40
23755;DHT22;12057;52.042;6.830;2023-06-04T02:49:07;13.70;96.00
23755;DHT22;12057;52.042;6.830;2023-06-04T02:54:08;13.70;96.00
23755;DHT22;12057;52.042;6.830;2023-06-04T02:59:09;13.60;95.70
23755;DHT22;12057;52.042;6.830;2023-06-04T03:04:10;13.60;96.70
23755;DHT22;12057;52.042;6.830;2023-06-04T03:09:15;13.50;96.90
23755;DHT22;12057;52.042;6.830;2023-06-04T03:14:16;13.40;96.90
23755;DHT22;12057;52.042;6.830;2023-06-04T03:19:18;13.50;97.30
23755;DHT22;12057;52.042;6.830;2023-06-04T03:24:19;13.50;97.20
23755;DHT22;12057;52.042;6.830;2023-06-04T03:29:20;13.40;96.70
23755;DHT22;12057;52.042;6.830;2023-06-04T03:34:21;13.30;96.60
23755;DHT22;12057;52.042;6.830;2023-06-04T03:39:25;13.20;97.60
23755;DHT22;12057;52.042;6.830;2023-06-04T03:44:26;13.20;97.30
23755;DHT22;12057;52.042;6.830;2023-06-04T03:49:27;13.20;98.30
23755;DHT22;12057;52.042;6.830;2023-06-04T03:54:28;13.20;98.80
23755;DHT22;12057;52.042;6.830;2023-06-04T03:59:28;13.10;99.30
23755;DHT22;12057;52.042;6.830;2023-06-04T04:04:29;13.00;99.90
23755;DHT22;12057;52.042;6.830;2023-06-04T04:09:30;13.10;99.90
23755;DHT22;12057;52.042;6.830;2023-06-04T04:14:31;12.90;99.90
23755;DHT22;12057;52.042;6.830;2023-06-04T04:19:31;13.10;99.90
23755;DHT22;12057;52.042;6.830;2023-06-04T04:24:33;13.10;99.90
23755;DHT22;12057;52.042;6.830;2023-06-04T04:29:36;13.00;99.90
23755;DHT22;12057;52.042;6.830;2023-06-04T04:34:38;13.00;99.90
23755;DHT22;12057;52.042;6.830;2023-06-04T04:39:43;13.20;99.90
23755;DHT22;12057;52.042;6.830;2023-06-04T04:44:44;13.10;99.90
23755;DHT22;12057;52.042;6.830;2023-06-04T04:49:48;13.20;99.90
23755;DHT22;12057;52.042;6.830;2023-06-04T04:54:49;13.20;99.90
23755;DHT22;12057;52.042;6.830;2023-06-04T04:59:50;13.20;99.90
23755;DHT22;12057;52.042;6.830;2023-06-04T05:04:51;13.20;99.90
23755;DHT22;12057;52.042;6.830;2023-06-04T05:09:52;13.40;99.90
23755;DHT22;12057;52.042;6.830;2023-06-04T05:14:52;13.40;99.90
23755;DHT22;12057;52.042;6.830;2023-06-04T05:19:53;13.60;99.90
23755;DHT22;12057;52.042;6.830;2023-06-04T05:24:55;13.70;99.90
23755;DHT22;12057;52.042;6.830;2023-06-04T05:29:56;13.90;99.90
23755;DHT22;12057;52.042;6.830;2023-06-04T05:34:58;14.10;99.90
23755;DHT22;12057;52.042;6.830;2023-06-04T05:39:59;14.10;99.90
23755;DHT22;12057;52.042;6.830;2023-06-04T05:45:00;14.30;99.90
23755;DHT22;12057;52.042;6.830;2023-06-04T05:50:01;14.50;99.90
23755;DHT22;12057;52.042;6.830;2023-06-04T05:55:01;14.40;99.90
23755;DHT22;12057;52.042;6.830;2023-06-04T06:00:06;14.50;99.90
23755;DHT22;12057;52.042;6.830;2023-06-04T06:05:10;14.70;99.90
23755;DHT22;12057;52.042;6.830;2023-06-04T06:10:11;15.00;99.90
23755;DHT22;12057;52.042;6.830;2023-06-04T06:15:12;15.00;99.90
23755;DHT22;12057;52.042;6.830;2023-06-04T06:20:16;15.60;99.90
23755;DHT22;12057;52.042;6.830;2023-06-04T06:25:18;15.70;99.90
23755;DHT22;12057;52.042;6.830;2023-06-04T06:30:19;15.90;99.90
23755;DHT22;12057;52.042;6.830;2023-06-04T06:35:19;16.10;99.90
23755;DHT22;12057;52.042;6.830;2023-06-04T06:40:20;16.40;99.90
23755;DHT22;12057;52.042;6.830;2023-06-04T06:45:24;16.90;99.90
23755;DHT22;12057;52.042;6.830;2023-06-04T06:50:25;17.30;98.80
23755;DHT22;12057;52.042;6.830;2023-06-04T06:55:26;17.50;99.30
23755;DHT22;12057;52.042;6.830;2023-06-04T07:00:27;17.80;96.50
23755;DHT22;12057;52.042;6.830;2023-06-04T07:05:30;17.90;97.10
23755;DHT22;12057;52.042;6.830;2023-06-04T07:10:31;18.10;97.00
23755;DHT22;12057;52.042;6.830;2023-06-04T07:15:32;18.20;96.70
23755;DHT22;12057;52.042;6.830;2023-06-04T07:20:32;18.60;96.00
23755;DHT22;12057;52.042;6.830;2023-06-04T07:25:34;18.90;95.30
23755;DHT22;12057;52.042;6.830;2023-06-04T07:30:34;19.20;94.80
23755;DHT22;12057;52.042;6.830;2023-06-04T07:35:36;19.60;94.50
23755;DHT22;12057;52.042;6.830;2023-06-04T07:40:37;19.50;93.30
23755;DHT22;12057;52.042;6.830;2023-06-04T07:45:37;19.80;93.20
23755;DHT22;12057;52.042;6.830;2023-06-04T07:50:38;20.10;91.80
23755;DHT22;12057;52.042;6.830;2023-06-04T07:55:40;20.40;91.10
23755;DHT22;12057;52.042;6.830;2023-06-04T08:00:41;20.70;91.50
23755;DHT22;12057;52.042;6.830;2023-06-04T08:05:42;21.10;90.10
23755;DHT22;12057;52.042;6.830;2023-06-04T08:10:43;21.20;90.90
23755;DHT22;12057;52.042;6.830;2023-06-04T08:15:43;21.40;86.00
23755;DHT22;12057;52.042;6.830;2023-06-04T08:20:45;21.50;88.00
23755;DHT22;12057;52.042;6.830;2023-06-04T08:25:46;22.00;86.10
23755;DHT22;12057;52.042;6.830;2023-06-04T08:30:46;22.20;84.10
23755;DHT22;12057;52.042;6.830;2023-06-04T08:35:47;22.20;79.00
23755;DHT22;12057;52.042;6.830;2023-06-04T08:40:52;22.20;78.80
23755;DHT22;12057;52.042;6.830;2023-06-04T08:45:58;22.20;78.40
23755;DHT22;12057;52.042;6.830;2023-06-04T08:51:00;22.80;76.60
23755;DHT22;12057;52.042;6.830;2023-06-04T08:56:02;22.80;74.10
23755;DHT22;12057;52.042;6.830;2023-06-04T09:01:03;22.60;73.70
23755;DHT22;12057;52.042;6.830;2023-06-04T09:06:04;23.00;74.50
23755;DHT22;12057;52.042;6.830;2023-06-04T09:11:08;23.40;72.70
23755;DHT22;12057;52.042;6.830;2023-06-04T09:16:11;23.80;71.60
23755;DHT22;12057;52.042;6.830;2023-06-04T09:21:12;23.60;71.30
23755;DHT22;12057;52.042;6.830;2023-06-04T09:26:13;23.40;69.20
23755;DHT22;12057;52.042;6.830;2023-06-04T09:31:17;24.20;67.60
23755;DHT22;12057;52.042;6.830;2023-06-04T09:36:20;24.30;66.70
23755;DHT22;12057;52.042;6.830;2023-06-04T09:41:21;24.30;61.90
23755;DHT22;12057;52.042;6.830;2023-06-04T09:46:22;24.30;61.70
23755;DHT22;12057;52.042;6.830;2023-06-04T09:51:23;24.40;64.60
23755;DHT22;12057;52.042;6.830;2023-06-04T09:56:24;24.70;62.50
23755;DHT22;12057;52.042;6.830;2023-06-04T10:01:26;24.70;60.50
23755;DHT22;12057;52.042;6.830;2023-06-04T10:06:27;24.80;59.40
23755;DHT22;12057;52.042;6.830;2023-06-04T10:11:53;25.30;60.90
23755;DHT22;12057;52.042;6.830;2023-06-04T10:16:57;25.50;59.20
23755;DHT22;12057;52.042;6.830;2023-06-04T10:21:59;25.10;60.10
23755;DHT22;12057;52.042;6.830;2023-06-04T10:26:59;25.10;57.60
23755;DHT22;12057;52.042;6.830;2023-06-04T10:32:01;25.20;60.00
23755;DHT22;12057;52.042;6.830;2023-06-04T10:37:02;25.10;59.10
23755;DHT22;12057;52.042;6.830;2023-06-04T10:42:03;25.30;60.70
23755;DHT22;12057;52.042;6.830;2023-06-04T10:47:05;25.50;58.10
23755;DHT22;12057;52.042;6.830;2023-06-04T10:52:10;25.90;58.30
23755;DHT22;12057;52.042;6.830;2023-06-04T10:57:12;25.70;58.20
23755;DHT22;12057;52.042;6.830;2023-06-04T11:02:13;26.00;58.00
23755;DHT22;12057;52.042;6.830;2023-06-04T11:07:15;26.50;57.90
23755;DHT22;12057;52.042;6.830;2023-06-04T11:12:15;26.30;56.30
23755;DHT22;12057;52.042;6.830;2023-06-04T11:17:16;26.10;56.30
23755;DHT22;12057;52.042;6.830;2023-06-04T11:22:17;26.20;55.90
23755;DHT22;12057;52.042;6.830;2023-06-04T11:27:18;26.20;56.60
23755;DHT22;12057;52.042;6.830;2023-06-04T11:32:26;26.30;56.00
23755;DHT22;12057;52.042;6.830;2023-06-04T11:37:27;26.20;54.50
23755;DHT22;12057;52.042;6.830;2023-06-04T11:42:34;26.40;54.90
23755;DHT22;12057;52.042;6.830;2023-06-04T11:47:36;26.80;55.40
23755;DHT22;12057;52.042;6.830;2023-06-04T11:52:37;27.50;54.10
23755;DHT22;12057;52.042;6.830;2023-06-04T11:57:39;26.90;53.50
23755;DHT22;12057;52.042;6.830;2023-06-04T12:02:52;27.20;56.00
23755;DHT22;12057;52.042;6.830;2023-06-04T12:08:07;27.40;54.60
23755;DHT22;12057;52.042;6.830;2023-06-04T12:13:10;26.70;55.60
23755;DHT22;12057;52.042;6.830;2023-06-04T12:18:11;26.90;54.90
23755;DHT22;12057;52.042;6.830;2023-06-04T12:23:20;27.30;53.50
23755;DHT22;12057;52.042;6.830;2023-06-04T12:28:21;27.60;56.10
23755;DHT22;12057;52.042;6.830;2023-06-04T12:33:22;27.40;53.50
23755;DHT22;12057;52.042;6.830;2023-06-04T12:38:23;27.50;55.40
23755;DHT22;12057;52.042;6.830;2023-06-04T12:43:23;27.90;54.60
23755;DHT22;12057;52.042;6.830;2023-06-04T12:48:25;28.00;54.40
23755;DHT22;12057;52.042;6.830;2023-06-04T12:53:26;27.50;52.20
23755;DHT22;12057;52.042;6.830;2023-06-04T12:58:27;27.10;52.60
23755;DHT22;12057;52.042;6.830;2023-06-04T13:03:30;27.40;55.70
23755;DHT22;12057;52.042;6.830;2023-06-04T13:08:31;27.40;53.30
23755;DHT22;12057;52.042;6.830;2023-06-04T13:13:32;27.30;51.60
23755;DHT22;12057;52.042;6.830;2023-06-04T13:18:32;27.30;53.30
23755;DHT22;12057;52.042;6.830;2023-06-04T13:23:33;27.30;51.90
23755;DHT22;12057;52.042;6.830;2023-06-04T13:28:34;27.50;54.50
23755;DHT22;12057;52.042;6.830;2023-06-04T13:33:35;27.90;53.50
23755;DHT22;12057;52.042;6.830;2023-06-04T13:38:36;28.00;52.80
23755;DHT22;12057;52.042;6.830;2023-06-04T13:43:37;27.80;52.70
23755;DHT22;12057;52.042;6.830;2023-06-04T13:48:39;28.10;51.50
23755;DHT22;12057;52.042;6.830;2023-06-04T13:53:40;27.90;51.40
23755;DHT22;12057;52.042;6.830;2023-06-04T13:58:40;27.40;51.80
23755;DHT22;12057;52.042;6.830;2023-06-04T14:03:48;27.30;51.10
23755;DHT22;12057;52.042;6.830;2023-06-04T14:09:04;27.70;55.00
23755;DHT22;12057;52.042;6.830;2023-06-04T14:14:09;28.20;51.30
23755;DHT22;12057;52.042;6.830;2023-06-04T14:19:11;28.40;51.10
23755;DHT22;12057;52.042;6.830;2023-06-04T14:24:12;28.10;51.60
23755;DHT22;12057;52.042;6.830;2023-06-04T14:29:13;28.20;51.30
23755;DHT22;12057;52.042;6.830;2023-06-04T14:34:15;27.90;51.20
23755;DHT22;12057;52.042;6.830;2023-06-04T14:39:15;27.40;51.50
23755;DHT22;12057;52.042;6.830;2023-06-04T14:44:16;27.70;53.20
23755;DHT22;12057;52.042;6.830;2023-06-04T14:49:17;27.50;54.00
23755;DHT22;12057;52.042;6.830;2023-06-04T14:54:18;27.10;52.90
23755;DHT22;12057;52.042;6.830;2023-06-04T14:59:18;27.80;53.90
23755;DHT22;12057;52.042;6.830;2023-06-04T15:04:19;27.80;53.90
23755;DHT22;12057;52.042;6.830;2023-06-04T15:09:20;27.60;52.30
23755;DHT22;12057;52.042;6.830;2023-06-04T15:14:21;27.30;53.20
23755;DHT22;12057;52.042;6.830;2023-06-04T15:19:22;27.00;52.10
23755;DHT22;12057;52.042;6.830;2023-06-04T15:24:22;26.80;52.20
23755;DHT22;12057;52.042;6.830;2023-06-04T15:29:23;26.90;51.50
23755;DHT22;12057;52.042;6.830;2023-06-04T15:34:24;27.30;52.60
23755;DHT22;12057;52.042;6.830;2023-06-04T15:39:25;26.60;51.90
23755;DHT22;12057;52.042;6.830;2023-06-04T15:44:25;26.20;51.40
23755;DHT22;12057;52.042;6.830;2023-06-04T15:49:27;26.30;52.30
23755;DHT22;12057;52.042;6.830;2023-06-04T15:54:29;26.70;53.60
23755;DHT22;12057;52.042;6.830;2023-06-04T15:59:30;27.30;54.00
23755;DHT22;12057;52.042;6.830;2023-06-04T16:04:30;26.70;52.10
23755;DHT22;12057;52.042;6.830;2023-06-04T16:09:31;26.70;52.40
23755;DHT22;12057;52.042;6.830;2023-06-04T16:14:32;26.70;51.70
23755;DHT22;12057;52.042;6.830;2023-06-04T16:19:33;26.50;53.20
23755;DHT22;12057;52.042;6.830;2023-06-04T16:24:33;26.30;52.50
23755;DHT22;12057;52.042;6.830;2023-06-04T16:29:34;26.60;53.70
23755;DHT22;12057;52.042;6.830;2023-06-04T16:34:35;26.70;53.00
23755;DHT22;12057;52.042;6.830;2023-06-04T16:39:35;26.40;53.00
23755;DHT22;12057;52.042;6.830;2023-06-04T16:44:36;25.70;52.70
23755;DHT22;12057;52.042;6.830;2023-06-04T16:49:37;25.80;54.10
23755;DHT22;12057;52.042;6.830;2023-06-04T16:54:38;25.40;52.50
23755;DHT22;12057;52.042;6.830;2023-06-04T16:59:44;25.90;54.70
23755;DHT22;12057;52.042;6.830;2023-06-04T17:04:45;25.90;53.70
23755;DHT22;12057;52.042;6.830;2023-06-04T17:09:46;26.10;53.30
23755;DHT22;12057;52.042;6.830;2023-06-04T17:14:47;25.90;54.60
23755;DHT22;12057;52.042;6.830;2023-06-04T17:19:48;25.50;54.10
23755;DHT22;12057;52.042;6.830;2023-06-04T17:24:49;25.40;54.60
23755;DHT22;12057;52.042;6.830;2023-06-04T17:29:50;25.00;54.90
23755;DHT22;12057;52.042;6.830;2023-06-04T17:34:51;25.00;55.90
23755;DHT22;12057;52.042;6.830;2023-06-04T17:39:53;24.90;56.00
23755;DHT22;12057;52.042;6.830;2023-06-04T17:44:54;24.40;57.70
23755;DHT22;12057;52.042;6.830;2023-06-04T17:49:54;24.60;56.90
23755;DHT22;12057;52.042;6.830;2023-06-04T17:54:55;24.40;56.30
23755;DHT22;12057;52.042;6.830;2023-06-04T17:59:57;24.10;58.30
23755;DHT22;12057;52.042;6.830;2023-06-04T18:04:58;24.30;58.00
23755;DHT22;12057;52.042;6.830;2023-06-04T18:09:59;24.80;57.40
23755;DHT22;12057;52.042;6.830;2023-06-04T18:15:00;24.20;57.40
23755;DHT22;12057;52.042;6.830;2023-06-04T18:20:00;24.10;58.80
23755;DHT22;12057;52.042;6.830;2023-06-04T18:25:01;23.70;60.30
23755;DHT22;12057;52.042;6.830;2023-06-04T18:30:03;23.40;64.90
23755;DHT22;12057;52.042;6.830;2023-06-04T18:35:04;23.20;66.10
23755;DHT22;12057;52.042;6.830;2023-06-04T18:40:08;23.00;67.60
23755;DHT22;12057;52.042;6.830;2023-06-04T18:45:10;22.70;70.40
23755;DHT22;12057;52.042;6.830;2023-06-04T18:50:10;22.90;69.90
23755;DHT22;12057;52.042;6.830;2023-06-04T18:55:11;22.80;70.40
23755;DHT22;12057;52.042;6.830;2023-06-04T19:00:12;22.40;72.40
23755;DHT22;12057;52.042;6.830;2023-06-04T19:05:15;22.30;73.60
23755;DHT22;12057;52.042;6.830;2023-06-04T19:10:16;22.00;75.90
23755;DHT22;12057;52.042;6.830;2023-06-04T19:15:17;21.90;76.80
23755;DHT22;12057;52.042;6.830;2023-06-04T19:20:18;21.80;77.70
23755;DHT22;12057;52.042;6.830;2023-06-04T19:25:18;21.40;78.80
23755;DHT22;12057;52.042;6.830;2023-06-04T19:30:20;21.20;80.60
23755;DHT22;12057;52.042;6.830;2023-06-04T19:35:24;21.10;81.10
23755;DHT22;12057;52.042;6.830;2023-06-04T19:40:25;20.70;82.50
23755;DHT22;12057;52.042;6.830;2023-06-04T19:45:26;20.70;83.50
23755;DHT22;12057;52.042;6.830;2023-06-04T19:50:27;20.60;83.60
23755;DHT22;12057;52.042;6.830;2023-06-04T19:55:28;20.40;84.40
23755;DHT22;12057;52.042;6.830;2023-06-04T20:00:30;20.20;85.60
23755;DHT22;12057;52.042;6.830;2023-06-04T20:05:31;19.90;86.90
23755;DHT22;12057;52.042;6.830;2023-06-04T20:10:32;19.80;88.00
23755;DHT22;12057;52.042;6.830;2023-06-04T20:15:32;19.80;88.10
23755;DHT22;12057;52.042;6.830;2023-06-04T20:20:33;19.60;88.70
23755;DHT22;12057;52.042;6.830;2023-06-04T20:25:34;19.50;89.50
23755;DHT22;12057;52.042;6.830;2023-06-04T20:30:35;19.20;90.10
23755;DHT22;12057;52.042;6.830;2023-06-04T20:35:36;19.10;90.50
23755;DHT22;12057;52.042;6.830;2023-06-04T20:40:37;19.20;90.60
23755;DHT22;12057;52.042;6.830;2023-06-04T20:45:38;18.90;91.00
23755;DHT22;12057;52.042;6.830;2023-06-04T20:50:39;18.90;91.30
23755;DHT22;12057;52.042;6.830;2023-06-04T20:55:40;18.80;91.40
23755;DHT22;12057;52.042;6.830;2023-06-04T21:00:40;18.70;91.80
23755;DHT22;12057;52.042;6.830;2023-06-04T21:05:42;18.50;92.00
23755;DHT22;12057;52.042;6.830;2023-06-04T21:10:42;18.40;92.50
23755;DHT22;12057;52.042;6.830;2023-06-04T21:15:44;18.30;92.80
23755;DHT22;12057;52.042;6.830;2023-06-04T21:20:45;18.30;92.90
23755;DHT22;12057;52.042;6.830;2023-06-04T21:25:45;18.00;93.50
23755;DHT22;12057;52.042;6.830;2023-06-04T21:30:49;17.80;93.90
23755;DHT22;12057;52.042;6.830;2023-06-04T21:35:50;17.70;94.40
23755;DHT22;12057;52.042;6.830;2023-06-04T21:40:51;17.70;94.30
23755;DHT22;12057;52.042;6.830;2023-06-04T21:45:52;17.70;94.60
23755;DHT22;12057;52.042;6.830;2023-06-04T21:50:52;17.50;95.40
23755;DHT22;12057;52.042;6.830;2023-06-04T21:55:53;17.50;95.30
23755;DHT22;12057;52.042;6.830;2023-06-04T22:00:54;17.50;95.40
23755;DHT22;12057;52.042;6.830;2023-06-04T22:05:55;17.40;95.80
23755;DHT22;12057;52.042;6.830;2023-06-04T22:10:56;17.30;96.00
23755;DHT22;12057;52.042;6.830;2023-06-04T22:15:57;17.30;96.00
23755;DHT22;12057;52.042;6.830;2023-06-04T22:20:57;17.10;96.60
23755;DHT22;12057;52.042;6.830;2023-06-04T22:25:58;17.10;96.30
23755;DHT22;12057;52.042;6.830;2023-06-04T22:30:59;17.10;96.30
23755;DHT22;12057;52.042;6.830;2023-06-04T22:36:00;17.00;97.50
23755;DHT22;12057;52.042;6.830;2023-06-04T22:41:04;17.00;97.70
23755;DHT22;12057;52.042;6.830;2023-06-04T22:46:05;16.80;97.40
23755;DHT22;12057;52.042;6.830;2023-06-04T22:51:05;16.80;98.40
23755;DHT22;12057;52.042;6.830;2023-06-04T22:56:06;16.80;98.60
23755;DHT22;12057;52.042;6.830;2023-06-04T23:01:09;16.80;97.80
23755;DHT22;12057;52.042;6.830;2023-06-04T23:06:10;16.70;98.40
23755;DHT22;12057;52.042;6.830;2023-06-04T23:11:11;16.70;97.90
23755;DHT22;12057;52.042;6.830;2023-06-04T23:16:12;16.60;98.70
23755;DHT22;12057;52.042;6.830;2023-06-04T23:21:13;16.50;98.10
23755;DHT22;12057;52.042;6.830;2023-06-04T23:26:14;16.30;98.80
23755;DHT22;12057;52.042;6.830;2023-06-04T23:31:15;16.10;99.30
23755;DHT22;12057;52.042;6.830;2023-06-04T23:36:16;16.10;99.50
23755;DHT22;12057;52.042;6.830;2023-06-04T23:41:17;16.00;99.90
23755;DHT22;12057;52.042;6.830;2023-06-04T23:46:18;15.80;99.90
23755;DHT22;12057;52.042;6.830;2023-06-04T23:51:19;15.80;99.90
23755;DHT22;12057;52.042;6.830;2023-06-04T23:56:19;15.70;99.90
